sensor_id;sensor_type;location;lat;lon;timestamp;temperature;humidity
12632;DHT22;6381;45.748;12.106;2022-10-30T00:02:19;17.90;95.00
12632;DHT22;6381;45.748;12.106;2022-10-30T00:04:50;17.70;95.40
12632;DHT22;6381;45.748;12.106;2022-10-30T00:07:21;17.70;95.70
12632;DHT22;6381;45.748;12.106;2022-10-30T00:09:54;17.80;95.60
12632;DHT22;6381;45.748;12.106;2022-10-30T00:12:26;17.80;95.50
12632;DHT22;6381;45.748;12.106;2022-10-30T00:14:57;17.90;95.40
12632;DHT22;6381;45.748;12.106;2022-10-30T00:17:27;17.80;95.20
12632;DHT22;6381;45.748;12.106;2022-10-30T00:19:58;17.80;95.30
12632;DHT22;6381;45.748;12.106;2022-10-30T00:22:28;17.70;95.20
12632;DHT22;6381;45.748;12.106;2022-10-30T00:25:00;17.70;95.30
12632;DHT22;6381;45.748;12.106;2022-10-30T00:27:33;17.70;95.90
12632;DHT22;6381;45.748;12.106;2022-10-30T00:30:05;17.80;96.20
12632;DHT22;6381;45.748;12.106;2022-10-30T00:32:36;17.80;96.20
12632;DHT22;6381;45.748;12.106;2022-10-30T00:35:08;17.80;96.20
12632;DHT22;6381;45.748;12.106;2022-10-30T00:37:39;17.90;96.30
12632;DHT22;6381;45.748;12.106;2022-10-30T00:40:14;17.80;96.50
12632;DHT22;6381;45.748;12.106;2022-10-30T00:42:45;17.60;96.50
12632;DHT22;6381;45.748;12.106;2022-10-30T00:45:17;17.60;96.80
12632;DHT22;6381;45.748;12.106;2022-10-30T00:47:52;17.50;97.30
12632;DHT22;6381;45.748;12.106;2022-10-30T00:50:27;17.40;97.50
12632;DHT22;6381;45.748;12.106;2022-10-30T00:53:02;15.20;97.20
12632;DHT22;6381;45.748;12.106;2022-10-30T00:55:42;17.10;98.40
12632;DHT22;6381;45.748;12.106;2022-10-30T00:58:16;17.00;98.60
12632;DHT22;6381;45.748;12.106;2022-10-30T01:00:50;17.10;98.70
12632;DHT22;6381;45.748;12.106;2022-10-30T01:03:23;17.10;98.50
12632;DHT22;6381;45.748;12.106;2022-10-30T01:05:56;17.10;98.50
12632;DHT22;6381;45.748;12.106;2022-10-30T01:08:28;16.80;98.60
12632;DHT22;6381;45.748;12.106;2022-10-30T01:11:02;16.60;98.90
12632;DHT22;6381;45.748;12.106;2022-10-30T01:13:35;16.80;99.00
12632;DHT22;6381;45.748;12.106;2022-10-30T01:16:18;16.80;99.20
12632;DHT22;6381;45.748;12.106;2022-10-30T01:18:58;16.60;99.80
12632;DHT22;6381;45.748;12.106;2022-10-30T01:21:43;16.50;99.90
12632;DHT22;6381;45.748;12.106;2022-10-30T01:24:37;16.60;99.90
12632;DHT22;6381;45.748;12.106;2022-10-30T01:27:25;16.40;99.90
12632;DHT22;6381;45.748;12.106;2022-10-30T01:30:11;16.70;99.90
12632;DHT22;6381;45.748;12.106;2022-10-30T01:32:53;16.60;99.90
12632;DHT22;6381;45.748;12.106;2022-10-30T01:35:33;16.60;99.90
12632;DHT22;6381;45.748;12.106;2022-10-30T01:38:09;16.30;99.90
12632;DHT22;6381;45.748;12.106;2022-10-30T01:40:43;16.40;99.90
12632;DHT22;6381;45.748;12.106;2022-10-30T01:43:16;16.40;99.90
12632;DHT22;6381;45.748;12.106;2022-10-30T01:45:58;16.30;99.90
12632;DHT22;6381;45.748;12.106;2022-10-30T01:48:56;16.20;99.90
12632;DHT22;6381;45.748;12.106;2022-10-30T01:51:41;16.30;99.90
12632;DHT22;6381;45.748;12.106;2022-10-30T01:54:25;16.30;99.90
12632;DHT22;6381;45.748;12.106;2022-10-30T01:57:05;16.30;99.90
12632;DHT22;6381;45.748;12.106;2022-10-30T01:59:44;16.30;99.90
12632;DHT22;6381;45.748;12.106;2022-10-30T02:02:15;16.50;99.90
12632;DHT22;6381;45.748;12.106;2022-10-30T02:04:47;16.50;99.90
12632;DHT22;6381;45.748;12.106;2022-10-30T02:07:18;16.50;99.90
12632;DHT22;6381;45.748;12.106;2022-10-30T02:09:51;16.60;99.90
12632;DHT22;6381;45.748;12.106;2022-10-30T02:12:22;16.40;99.90
12632;DHT22;6381;45.748;12.106;2022-10-30T02:14:58;16.30;99.90
12632;DHT22;6381;45.748;12.106;2022-10-30T02:17:29;16.30;99.90
12632;DHT22;6381;45.748;12.106;2022-10-30T02:19:59;16.20;99.90
12632;DHT22;6381;45.748;12.106;2022-10-30T02:22:32;16.20;99.90
12632;DHT22;6381;45.748;12.106;2022-10-30T02:25:02;16.30;99.90
12632;DHT22;6381;45.748;12.106;2022-10-30T02:27:34;16.30;99.90
12632;DHT22;6381;45.748;12.106;2022-10-30T02:30:05;16.40;99.90
12632;DHT22;6381;45.748;12.106;2022-10-30T02:32:36;16.40;99.90
12632;DHT22;6381;45.748;12.106;2022-10-30T02:35:07;16.40;99.90
12632;DHT22;6381;45.748;12.106;2022-10-30T02:37:40;16.30;99.90
12632;DHT22;6381;45.748;12.106;2022-10-30T02:40:12;16.30;99.90
12632;DHT22;6381;45.748;12.106;2022-10-30T02:42:41;16.30;99.90
12632;DHT22;6381;45.748;12.106;2022-10-30T02:45:15;16.30;99.90
12632;DHT22;6381;45.748;12.106;2022-10-30T02:47:45;16.20;99.90
12632;DHT22;6381;45.748;12.106;2022-10-30T02:50:15;15.90;99.90
12632;DHT22;6381;45.748;12.106;2022-10-30T02:52:52;15.70;99.90
12632;DHT22;6381;45.748;12.106;2022-10-30T02:55:22;15.70;99.90
12632;DHT22;6381;45.748;12.106;2022-10-30T02:57:55;15.80;99.90
12632;DHT22;6381;45.748;12.106;2022-10-30T03:00:25;15.90;99.90
12632;DHT22;6381;45.748;12.106;2022-10-30T03:02:56;15.90;99.90
12632;DHT22;6381;45.748;12.106;2022-10-30T03:05:30;16.00;99.90
12632;DHT22;6381;45.748;12.106;2022-10-30T03:08:05;15.90;99.90
12632;DHT22;6381;45.748;12.106;2022-10-30T03:10:35;15.70;99.90
12632;DHT22;6381;45.748;12.106;2022-10-30T03:13:05;15.80;99.90
12632;DHT22;6381;45.748;12.106;2022-10-30T03:15:36;15.90;99.90
12632;DHT22;6381;45.748;12.106;2022-10-30T03:18:07;15.70;99.90
12632;DHT22;6381;45.748;12.106;2022-10-30T03:20:41;15.80;99.90
12632;DHT22;6381;45.748;12.106;2022-10-30T03:23:12;15.90;99.90
12632;DHT22;6381;45.748;12.106;2022-10-30T03:25:44;16.00;99.90
12632;DHT22;6381;45.748;12.106;2022-10-30T03:28:14;15.70;99.90
12632;DHT22;6381;45.748;12.106;2022-10-30T03:30:45;15.50;99.90
12632;DHT22;6381;45.748;12.106;2022-10-30T03:33:17;15.50;99.90
12632;DHT22;6381;45.748;12.106;2022-10-30T03:35:47;15.50;99.90
12632;DHT22;6381;45.748;12.106;2022-10-30T03:38:19;15.30;99.90
12632;DHT22;6381;45.748;12.106;2022-10-30T03:40:52;15.30;99.90
12632;DHT22;6381;45.748;12.106;2022-10-30T03:43:24;15.50;99.90
12632;DHT22;6381;45.748;12.106;2022-10-30T03:45:55;15.60;99.90
12632;DHT22;6381;45.748;12.106;2022-10-30T03:48:27;15.60;99.90
12632;DHT22;6381;45.748;12.106;2022-10-30T03:50:59;15.70;99.90
12632;DHT22;6381;45.748;12.106;2022-10-30T03:53:33;15.40;99.90
12632;DHT22;6381;45.748;12.106;2022-10-30T03:56:04;15.40;99.90
12632;DHT22;6381;45.748;12.106;2022-10-30T03:58:44;15.30;99.90
12632;DHT22;6381;45.748;12.106;2022-10-30T04:01:19;15.30;99.90
12632;DHT22;6381;45.748;12.106;2022-10-30T04:03:56;15.40;99.90
12632;DHT22;6381;45.748;12.106;2022-10-30T04:06:26;15.50;99.90
12632;DHT22;6381;45.748;12.106;2022-10-30T04:08:58;15.30;99.90
12632;DHT22;6381;45.748;12.106;2022-10-30T04:11:35;14.90;99.90
12632;DHT22;6381;45.748;12.106;2022-10-30T04:14:07;15.10;99.90
12632;DHT22;6381;45.748;12.106;2022-10-30T04:16:37;15.30;99.90
12632;DHT22;6381;45.748;12.106;2022-10-30T04:19:07;15.30;99.90
12632;DHT22;6381;45.748;12.106;2022-10-30T04:21:39;15.50;99.90
12632;DHT22;6381;45.748;12.106;2022-10-30T04:24:13;15.10;99.90
12632;DHT22;6381;45.748;12.106;2022-10-30T04:26:49;15.30;99.90
12632;DHT22;6381;45.748;12.106;2022-10-30T04:29:20;15.30;99.90
12632;DHT22;6381;45.748;12.106;2022-10-30T04:31:53;15.00;99.90
12632;DHT22;6381;45.748;12.106;2022-10-30T04:34:23;15.10;99.90
12632;DHT22;6381;45.748;12.106;2022-10-30T04:36:53;14.90;99.90
12632;DHT22;6381;45.748;12.106;2022-10-30T04:39:26;15.00;99.90
12632;DHT22;6381;45.748;12.106;2022-10-30T04:42:02;14.80;99.90
12632;DHT22;6381;45.748;12.106;2022-10-30T04:44:34;14.90;99.90
12632;DHT22;6381;45.748;12.106;2022-10-30T04:47:07;14.60;99.90
12632;DHT22;6381;45.748;12.106;2022-10-30T04:49:38;14.80;99.90
12632;DHT22;6381;45.748;12.106;2022-10-30T04:52:09;14.90;99.90
12632;DHT22;6381;45.748;12.106;2022-10-30T04:54:41;14.80;99.90
12632;DHT22;6381;45.748;12.106;2022-10-30T04:57:12;14.60;99.90
12632;DHT22;6381;45.748;12.106;2022-10-30T04:59:43;14.60;99.90
12632;DHT22;6381;45.748;12.106;2022-10-30T05:02:14;14.50;99.90
12632;DHT22;6381;45.748;12.106;2022-10-30T05:04:49;14.60;99.90
12632;DHT22;6381;45.748;12.106;2022-10-30T05:07:19;14.50;99.90
12632;DHT22;6381;45.748;12.106;2022-10-30T05:09:52;14.70;99.90
12632;DHT22;6381;45.748;12.106;2022-10-30T05:12:23;14.40;99.90
12632;DHT22;6381;45.748;12.106;2022-10-30T05:14:55;14.80;99.90
12632;DHT22;6381;45.748;12.106;2022-10-30T05:17:26;14.80;99.90
12632;DHT22;6381;45.748;12.106;2022-10-30T05:20:02;14.80;99.90
12632;DHT22;6381;45.748;12.106;2022-10-30T05:22:34;14.70;99.90
12632;DHT22;6381;45.748;12.106;2022-10-30T05:25:07;14.70;99.90
12632;DHT22;6381;45.748;12.106;2022-10-30T05:27:38;14.70;99.90
12632;DHT22;6381;45.748;12.106;2022-10-30T05:30:09;14.70;99.90
12632;DHT22;6381;45.748;12.106;2022-10-30T05:32:41;14.70;99.90
12632;DHT22;6381;45.748;12.106;2022-10-30T05:35:13;14.90;99.90
12632;DHT22;6381;45.748;12.106;2022-10-30T05:37:45;14.40;99.90
12632;DHT22;6381;45.748;12.106;2022-10-30T05:40:18;14.40;99.90
12632;DHT22;6381;45.748;12.106;2022-10-30T05:42:49;14.10;99.90
12632;DHT22;6381;45.748;12.106;2022-10-30T05:45:20;14.20;99.90
12632;DHT22;6381;45.748;12.106;2022-10-30T05:47:57;13.80;99.90
12632;DHT22;6381;45.748;12.106;2022-10-30T05:50:33;13.90;99.90
12632;DHT22;6381;45.748;12.106;2022-10-30T05:53:33;14.30;99.90
12632;DHT22;6381;45.748;12.106;2022-10-30T05:56:08;14.60;99.90
12632;DHT22;6381;45.748;12.106;2022-10-30T05:58:38;14.50;99.90
12632;DHT22;6381;45.748;12.106;2022-10-30T06:01:10;14.50;99.90
12632;DHT22;6381;45.748;12.106;2022-10-30T06:03:47;14.30;99.90
12632;DHT22;6381;45.748;12.106;2022-10-30T06:06:17;14.50;99.90
12632;DHT22;6381;45.748;12.106;2022-10-30T06:08:49;14.50;99.90
12632;DHT22;6381;45.748;12.106;2022-10-30T06:11:47;14.80;99.90
12632;DHT22;6381;45.748;12.106;2022-10-30T06:14:22;14.80;99.90
12632;DHT22;6381;45.748;12.106;2022-10-30T06:16:52;14.70;99.90
12632;DHT22;6381;45.748;12.106;2022-10-30T06:19:32;14.70;99.90
12632;DHT22;6381;45.748;12.106;2022-10-30T06:22:24;14.80;99.90
12632;DHT22;6381;45.748;12.106;2022-10-30T06:25:02;14.90;99.90
12632;DHT22;6381;45.748;12.106;2022-10-30T06:27:53;14.90;99.90
12632;DHT22;6381;45.748;12.106;2022-10-30T06:30:27;15.00;99.90
12632;DHT22;6381;45.748;12.106;2022-10-30T06:32:59;15.10;99.90
12632;DHT22;6381;45.748;12.106;2022-10-30T06:35:31;15.10;99.90
12632;DHT22;6381;45.748;12.106;2022-10-30T06:38:02;15.20;99.90
12632;DHT22;6381;45.748;12.106;2022-10-30T06:40:36;15.00;99.90
12632;DHT22;6381;45.748;12.106;2022-10-30T06:43:26;15.00;99.90
12632;DHT22;6381;45.748;12.106;2022-10-30T06:46:20;15.10;99.90
12632;DHT22;6381;45.748;12.106;2022-10-30T06:48:57;15.20;99.90
12632;DHT22;6381;45.748;12.106;2022-10-30T06:51:30;15.20;99.90
12632;DHT22;6381;45.748;12.106;2022-10-30T06:54:04;15.40;99.90
12632;DHT22;6381;45.748;12.106;2022-10-30T06:57:20;15.50;99.90
12632;DHT22;6381;45.748;12.106;2022-10-30T07:00:13;15.60;99.90
12632;DHT22;6381;45.748;12.106;2022-10-30T07:03:17;15.60;99.90
12632;DHT22;6381;45.748;12.106;2022-10-30T07:05:50;15.90;99.90
12632;DHT22;6381;45.748;12.106;2022-10-30T07:08:23;16.10;99.90
12632;DHT22;6381;45.748;12.106;2022-10-30T07:10:56;16.10;99.90
12632;DHT22;6381;45.748;12.106;2022-10-30T07:13:26;16.30;99.90
12632;DHT22;6381;45.748;12.106;2022-10-30T07:16:18;16.40;99.90
12632;DHT22;6381;45.748;12.106;2022-10-30T07:18:51;16.60;99.90
12632;DHT22;6381;45.748;12.106;2022-10-30T07:21:29;16.70;99.90
12632;DHT22;6381;45.748;12.106;2022-10-30T07:24:06;16.80;99.90
12632;DHT22;6381;45.748;12.106;2022-10-30T07:26:50;17.00;99.90
12632;DHT22;6381;45.748;12.106;2022-10-30T07:29:47;16.90;99.90
12632;DHT22;6381;45.748;12.106;2022-10-30T07:32:26;17.00;99.90
12632;DHT22;6381;45.748;12.106;2022-10-30T07:35:14;17.00;99.90
12632;DHT22;6381;45.748;12.106;2022-10-30T07:38:02;17.00;99.90
12632;DHT22;6381;45.748;12.106;2022-10-30T07:40:51;17.20;99.90
12632;DHT22;6381;45.748;12.106;2022-10-30T07:43:56;17.40;99.90
12632;DHT22;6381;45.748;12.106;2022-10-30T07:46:57;17.50;99.90
12632;DHT22;6381;45.748;12.106;2022-10-30T07:49:48;17.70;99.90
12632;DHT22;6381;45.748;12.106;2022-10-30T07:52:18;17.80;99.90
12632;DHT22;6381;45.748;12.106;2022-10-30T07:54:51;17.70;99.90
12632;DHT22;6381;45.748;12.106;2022-10-30T07:57:41;17.80;99.90
12632;DHT22;6381;45.748;12.106;2022-10-30T08:00:30;17.80;99.90
12632;DHT22;6381;45.748;12.106;2022-10-30T08:03:13;18.00;99.90
12632;DHT22;6381;45.748;12.106;2022-10-30T08:05:59;18.10;99.90
12632;DHT22;6381;45.748;12.106;2022-10-30T08:08:38;18.10;99.90
12632;DHT22;6381;45.748;12.106;2022-10-30T08:11:24;18.30;99.90
12632;DHT22;6381;45.748;12.106;2022-10-30T08:13:56;18.10;99.90
12632;DHT22;6381;45.748;12.106;2022-10-30T08:16:27;18.00;99.90
12632;DHT22;6381;45.748;12.106;2022-10-30T08:18:58;18.10;99.90
12632;DHT22;6381;45.748;12.106;2022-10-30T08:21:31;18.10;99.90
12632;DHT22;6381;45.748;12.106;2022-10-30T08:24:15;18.00;99.90
12632;DHT22;6381;45.748;12.106;2022-10-30T08:26:51;18.00;99.90
12632;DHT22;6381;45.748;12.106;2022-10-30T08:29:22;18.20;99.90
12632;DHT22;6381;45.748;12.106;2022-10-30T08:31:54;18.70;99.90
12632;DHT22;6381;45.748;12.106;2022-10-30T08:34:45;18.60;99.50
12632;DHT22;6381;45.748;12.106;2022-10-30T08:37:19;18.80;99.80
12632;DHT22;6381;45.748;12.106;2022-10-30T08:39:49;19.10;98.70
12632;DHT22;6381;45.748;12.106;2022-10-30T08:42:42;19.10;98.20
12632;DHT22;6381;45.748;12.106;2022-10-30T08:45:24;19.20;98.90
12632;DHT22;6381;45.748;12.106;2022-10-30T08:48:12;19.40;99.40
12632;DHT22;6381;45.748;12.106;2022-10-30T08:50:44;19.60;99.00
12632;DHT22;6381;45.748;12.106;2022-10-30T08:53:23;19.60;97.40
12632;DHT22;6381;45.748;12.106;2022-10-30T08:55:55;19.80;97.30
12632;DHT22;6381;45.748;12.106;2022-10-30T08:58:37;19.90;96.90
12632;DHT22;6381;45.748;12.106;2022-10-30T09:01:11;19.90;96.60
12632;DHT22;6381;45.748;12.106;2022-10-30T09:04:02;19.80;95.90
12632;DHT22;6381;45.748;12.106;2022-10-30T09:07:04;19.60;95.80
12632;DHT22;6381;45.748;12.106;2022-10-30T09:10:04;20.10;97.20
12632;DHT22;6381;45.748;12.106;2022-10-30T09:12:36;20.40;96.20
12632;DHT22;6381;45.748;12.106;2022-10-30T09:15:08;20.50;96.40
12632;DHT22;6381;45.748;12.106;2022-10-30T09:17:56;20.70;96.30
12632;DHT22;6381;45.748;12.106;2022-10-30T09:20:29;20.70;95.20
12632;DHT22;6381;45.748;12.106;2022-10-30T09:23:01;20.70;93.90
12632;DHT22;6381;45.748;12.106;2022-10-30T09:25:34;20.30;94.30
12632;DHT22;6381;45.748;12.106;2022-10-30T09:28:15;20.80;96.30
12632;DHT22;6381;45.748;12.106;2022-10-30T09:31:09;20.60;93.90
12632;DHT22;6381;45.748;12.106;2022-10-30T09:33:39;20.60;94.20
12632;DHT22;6381;45.748;12.106;2022-10-30T09:36:29;20.50;94.60
12632;DHT22;6381;45.748;12.106;2022-10-30T09:39:01;20.80;95.00
12632;DHT22;6381;45.748;12.106;2022-10-30T09:42:02;21.20;94.50
12632;DHT22;6381;45.748;12.106;2022-10-30T09:44:45;21.50;93.50
12632;DHT22;6381;45.748;12.106;2022-10-30T09:47:48;21.60;92.60
12632;DHT22;6381;45.748;12.106;2022-10-30T09:50:24;21.70;92.70
12632;DHT22;6381;45.748;12.106;2022-10-30T09:53:09;22.00;94.20
12632;DHT22;6381;45.748;12.106;2022-10-30T09:55:46;22.30;94.20
12632;DHT22;6381;45.748;12.106;2022-10-30T09:58:25;22.10;91.10
12632;DHT22;6381;45.748;12.106;2022-10-30T10:01:08;22.30;91.30
12632;DHT22;6381;45.748;12.106;2022-10-30T10:03:57;22.50;91.20
12632;DHT22;6381;45.748;12.106;2022-10-30T10:06:46;22.80;90.90
12632;DHT22;6381;45.748;12.106;2022-10-30T10:09:53;22.50;90.50
12632;DHT22;6381;45.748;12.106;2022-10-30T10:12:50;22.40;89.10
12632;DHT22;6381;45.748;12.106;2022-10-30T10:15:37;22.80;90.10
12632;DHT22;6381;45.748;12.106;2022-10-30T10:18:16;23.10;89.40
12632;DHT22;6381;45.748;12.106;2022-10-30T10:20:52;23.40;89.20
12632;DHT22;6381;45.748;12.106;2022-10-30T10:23:29;23.70;87.40
12632;DHT22;6381;45.748;12.106;2022-10-30T10:26:13;23.90;88.40
12632;DHT22;6381;45.748;12.106;2022-10-30T10:28:55;23.90;85.30
12632;DHT22;6381;45.748;12.106;2022-10-30T10:31:38;23.90;83.00
12632;DHT22;6381;45.748;12.106;2022-10-30T10:37:15;23.90;84.40
12632;DHT22;6381;45.748;12.106;2022-10-30T10:40:02;24.30;82.70
12632;DHT22;6381;45.748;12.106;2022-10-30T10:42:44;24.50;82.70
12632;DHT22;6381;45.748;12.106;2022-10-30T10:45:23;24.80;79.40
12632;DHT22;6381;45.748;12.106;2022-10-30T10:48:09;23.80;78.40
12632;DHT22;6381;45.748;12.106;2022-10-30T10:50:47;23.70;79.50
12632;DHT22;6381;45.748;12.106;2022-10-30T10:53:21;24.50;79.60
12632;DHT22;6381;45.748;12.106;2022-10-30T10:55:57;25.20;76.40
12632;DHT22;6381;45.748;12.106;2022-10-30T10:58:32;25.50;75.30
12632;DHT22;6381;45.748;12.106;2022-10-30T11:01:07;25.70;74.90
12632;DHT22;6381;45.748;12.106;2022-10-30T11:03:51;25.60;73.80
12632;DHT22;6381;45.748;12.106;2022-10-30T11:06:26;25.50;75.70
12632;DHT22;6381;45.748;12.106;2022-10-30T11:09:16;25.00;73.90
12632;DHT22;6381;45.748;12.106;2022-10-30T11:11:48;25.10;75.00
12632;DHT22;6381;45.748;12.106;2022-10-30T11:14:21;25.00;72.50
12632;DHT22;6381;45.748;12.106;2022-10-30T11:17:01;24.80;74.30
12632;DHT22;6381;45.748;12.106;2022-10-30T11:19:34;24.80;74.10
12632;DHT22;6381;45.748;12.106;2022-10-30T11:22:17;24.60;74.70
12632;DHT22;6381;45.748;12.106;2022-10-30T11:24:50;24.70;73.50
12632;DHT22;6381;45.748;12.106;2022-10-30T11:27:25;24.90;72.40
12632;DHT22;6381;45.748;12.106;2022-10-30T11:30:01;25.10;72.50
12632;DHT22;6381;45.748;12.106;2022-10-30T11:32:32;25.10;72.20
12632;DHT22;6381;45.748;12.106;2022-10-30T11:35:12;25.00;72.80
12632;DHT22;6381;45.748;12.106;2022-10-30T11:37:44;24.60;73.00
12632;DHT22;6381;45.748;12.106;2022-10-30T11:40:18;25.10;72.90
12632;DHT22;6381;45.748;12.106;2022-10-30T11:42:57;25.60;70.90
12632;DHT22;6381;45.748;12.106;2022-10-30T11:45:31;26.20;71.10
12632;DHT22;6381;45.748;12.106;2022-10-30T11:48:09;26.20;70.20
12632;DHT22;6381;45.748;12.106;2022-10-30T11:50:46;27.30;69.10
12632;DHT22;6381;45.748;12.106;2022-10-30T11:53:21;26.90;65.90
12632;DHT22;6381;45.748;12.106;2022-10-30T11:55:58;26.50;66.70
12632;DHT22;6381;45.748;12.106;2022-10-30T11:58:31;26.80;69.10
12632;DHT22;6381;45.748;12.106;2022-10-30T12:01:04;27.30;67.00
12632;DHT22;6381;45.748;12.106;2022-10-30T12:03:36;26.40;65.60
12632;DHT22;6381;45.748;12.106;2022-10-30T12:06:10;26.10;66.90
12632;DHT22;6381;45.748;12.106;2022-10-30T12:09:01;26.60;67.00
12632;DHT22;6381;45.748;12.106;2022-10-30T12:11:33;26.90;66.10
12632;DHT22;6381;45.748;12.106;2022-10-30T12:14:04;27.30;65.30
12632;DHT22;6381;45.748;12.106;2022-10-30T12:16:35;28.30;63.90
12632;DHT22;6381;45.748;12.106;2022-10-30T12:19:12;28.40;63.50
12632;DHT22;6381;45.748;12.106;2022-10-30T12:21:50;28.60;62.50
12632;DHT22;6381;45.748;12.106;2022-10-30T12:24:27;28.20;62.10
12632;DHT22;6381;45.748;12.106;2022-10-30T12:27:03;28.40;61.40
12632;DHT22;6381;45.748;12.106;2022-10-30T12:29:41;28.00;59.80
12632;DHT22;6381;45.748;12.106;2022-10-30T12:32:40;28.10;60.60
12632;DHT22;6381;45.748;12.106;2022-10-30T12:35:38;29.20;60.30
12632;DHT22;6381;45.748;12.106;2022-10-30T12:38:16;29.40;60.80
12632;DHT22;6381;45.748;12.106;2022-10-30T12:40:59;29.30;58.90
12632;DHT22;6381;45.748;12.106;2022-10-30T12:43:34;28.40;58.30
12632;DHT22;6381;45.748;12.106;2022-10-30T12:46:16;29.30;58.40
12632;DHT22;6381;45.748;12.106;2022-10-30T12:48:52;29.60;57.80
12632;DHT22;6381;45.748;12.106;2022-10-30T12:51:31;28.70;56.90
12632;DHT22;6381;45.748;12.106;2022-10-30T12:54:16;28.50;58.50
12632;DHT22;6381;45.748;12.106;2022-10-30T12:57:02;29.20;58.70
12632;DHT22;6381;45.748;12.106;2022-10-30T12:59:45;29.60;57.50
12632;DHT22;6381;45.748;12.106;2022-10-30T13:02:27;29.40;56.60
12632;DHT22;6381;45.748;12.106;2022-10-30T13:05:04;29.60;56.50
12632;DHT22;6381;45.748;12.106;2022-10-30T13:07:43;29.00;55.20
12632;DHT22;6381;45.748;12.106;2022-10-30T13:10:24;28.60;55.40
12632;DHT22;6381;45.748;12.106;2022-10-30T13:13:04;28.50;56.90
12632;DHT22;6381;45.748;12.106;2022-10-30T13:15:45;27.70;56.50
12632;DHT22;6381;45.748;12.106;2022-10-30T13:18:19;27.50;57.30
12632;DHT22;6381;45.748;12.106;2022-10-30T13:21:04;27.90;57.10
12632;DHT22;6381;45.748;12.106;2022-10-30T13:23:46;28.60;56.30
12632;DHT22;6381;45.748;12.106;2022-10-30T13:26:23;29.10;57.10
12632;DHT22;6381;45.748;12.106;2022-10-30T13:29:04;29.60;56.70
12632;DHT22;6381;45.748;12.106;2022-10-30T13:31:47;29.90;54.50
12632;DHT22;6381;45.748;12.106;2022-10-30T13:34:31;29.60;55.40
12632;DHT22;6381;45.748;12.106;2022-10-30T13:37:07;29.60;55.30
12632;DHT22;6381;45.748;12.106;2022-10-30T13:39:47;29.10;54.90
12632;DHT22;6381;45.748;12.106;2022-10-30T13:42:35;28.90;55.60
12632;DHT22;6381;45.748;12.106;2022-10-30T13:45:32;29.20;54.80
12632;DHT22;6381;45.748;12.106;2022-10-30T13:48:13;29.40;53.90
12632;DHT22;6381;45.748;12.106;2022-10-30T13:51:02;29.80;53.90
12632;DHT22;6381;45.748;12.106;2022-10-30T13:53:36;29.70;53.10
12632;DHT22;6381;45.748;12.106;2022-10-30T13:56:13;29.50;52.40
12632;DHT22;6381;45.748;12.106;2022-10-30T13:58:50;28.80;53.50
12632;DHT22;6381;45.748;12.106;2022-10-30T14:01:32;29.50;53.40
12632;DHT22;6381;45.748;12.106;2022-10-30T14:04:06;29.90;53.10
12632;DHT22;6381;45.748;12.106;2022-10-30T14:06:41;30.00;54.60
12632;DHT22;6381;45.748;12.106;2022-10-30T14:09:23;29.90;53.00
12632;DHT22;6381;45.748;12.106;2022-10-30T14:11:54;29.60;53.80
12632;DHT22;6381;45.748;12.106;2022-10-30T14:14:30;29.70;53.10
12632;DHT22;6381;45.748;12.106;2022-10-30T14:17:13;29.30;52.00
12632;DHT22;6381;45.748;12.106;2022-10-30T14:20:20;29.70;53.10
12632;DHT22;6381;45.748;12.106;2022-10-30T14:23:06;30.00;52.70
12632;DHT22;6381;45.748;12.106;2022-10-30T14:25:39;30.10;53.00
12632;DHT22;6381;45.748;12.106;2022-10-30T14:28:18;29.70;52.20
12632;DHT22;6381;45.748;12.106;2022-10-30T14:31:00;29.50;52.00
12632;DHT22;6381;45.748;12.106;2022-10-30T14:33:44;29.20;53.10
12632;DHT22;6381;45.748;12.106;2022-10-30T14:36:18;29.50;53.20
12632;DHT22;6381;45.748;12.106;2022-10-30T14:39:00;29.10;52.60
12632;DHT22;6381;45.748;12.106;2022-10-30T14:42:03;29.30;53.10
12632;DHT22;6381;45.748;12.106;2022-10-30T14:45:00;28.80;52.80
12632;DHT22;6381;45.748;12.106;2022-10-30T14:47:54;28.80;54.20
12632;DHT22;6381;45.748;12.106;2022-10-30T14:50:37;29.00;53.70
12632;DHT22;6381;45.748;12.106;2022-10-30T14:53:27;29.10;53.90
12632;DHT22;6381;45.748;12.106;2022-10-30T14:56:04;28.90;54.10
12632;DHT22;6381;45.748;12.106;2022-10-30T14:58:36;28.80;54.40
12632;DHT22;6381;45.748;12.106;2022-10-30T15:01:23;28.80;54.40
12632;DHT22;6381;45.748;12.106;2022-10-30T15:06:58;28.10;54.80
12632;DHT22;6381;45.748;12.106;2022-10-30T15:09:39;27.70;55.90
12632;DHT22;6381;45.748;12.106;2022-10-30T15:12:32;27.60;57.40
12632;DHT22;6381;45.748;12.106;2022-10-30T15:15:09;27.70;57.00
12632;DHT22;6381;45.748;12.106;2022-10-30T15:17:44;27.80;56.80
12632;DHT22;6381;45.748;12.106;2022-10-30T15:20:19;27.60;57.30
12632;DHT22;6381;45.748;12.106;2022-10-30T15:22:54;26.90;58.40
12632;DHT22;6381;45.748;12.106;2022-10-30T15:25:30;26.40;59.80
12632;DHT22;6381;45.748;12.106;2022-10-30T15:28:04;26.10;61.20
12632;DHT22;6381;45.748;12.106;2022-10-30T15:30:34;25.90;62.80
12632;DHT22;6381;45.748;12.106;2022-10-30T15:33:19;25.60;63.90
12632;DHT22;6381;45.748;12.106;2022-10-30T15:35:52;25.30;65.90
12632;DHT22;6381;45.748;12.106;2022-10-30T15:38:23;25.10;66.60
12632;DHT22;6381;45.748;12.106;2022-10-30T15:40:57;24.90;68.10
12632;DHT22;6381;45.748;12.106;2022-10-30T15:43:30;24.70;69.40
12632;DHT22;6381;45.748;12.106;2022-10-30T15:46:03;24.60;70.60
12632;DHT22;6381;45.748;12.106;2022-10-30T15:48:45;24.50;71.30
12632;DHT22;6381;45.748;12.106;2022-10-30T15:51:21;24.20;73.10
12632;DHT22;6381;45.748;12.106;2022-10-30T15:53:54;24.10;74.30
12632;DHT22;6381;45.748;12.106;2022-10-30T15:56:27;23.90;76.40
12632;DHT22;6381;45.748;12.106;2022-10-30T15:59:02;23.80;77.90
12632;DHT22;6381;45.748;12.106;2022-10-30T16:01:35;23.70;79.50
12632;DHT22;6381;45.748;12.106;2022-10-30T16:04:13;23.60;80.90
12632;DHT22;6381;45.748;12.106;2022-10-30T16:06:51;23.30;82.50
12632;DHT22;6381;45.748;12.106;2022-10-30T16:09:23;23.20;84.10
12632;DHT22;6381;45.748;12.106;2022-10-30T16:11:57;23.00;85.20
12632;DHT22;6381;45.748;12.106;2022-10-30T16:14:29;23.10;86.30
12632;DHT22;6381;45.748;12.106;2022-10-30T16:17:00;22.90;87.50
12632;DHT22;6381;45.748;12.106;2022-10-30T16:19:36;22.80;88.90
12632;DHT22;6381;45.748;12.106;2022-10-30T16:22:13;22.70;89.80
12632;DHT22;6381;45.748;12.106;2022-10-30T16:24:44;22.70;90.00
12632;DHT22;6381;45.748;12.106;2022-10-30T16:27:18;22.40;90.60
12632;DHT22;6381;45.748;12.106;2022-10-30T16:29:50;22.30;91.30
12632;DHT22;6381;45.748;12.106;2022-10-30T16:32:25;22.10;91.90
12632;DHT22;6381;45.748;12.106;2022-10-30T16:34:58;22.20;92.30
12632;DHT22;6381;45.748;12.106;2022-10-30T16:37:34;22.20;92.40
12632;DHT22;6381;45.748;12.106;2022-10-30T16:40:12;22.00;92.90
12632;DHT22;6381;45.748;12.106;2022-10-30T16:42:47;21.80;93.60